sensor_id;sensor_type;location;lat;lon;timestamp;temperature;humidity
1453;DHT22;720;47.738;7.998;2023-01-08T00:01:10;3.30;99.90
1453;DHT22;720;47.738;7.998;2023-01-08T00:03:37;3.10;99.90
1453;DHT22;720;47.738;7.998;2023-01-08T00:06:05;3.10;99.90
1453;DHT22;720;47.738;7.998;2023-01-08T00:08:31;3.10;99.90
1453;DHT22;720;47.738;7.998;2023-01-08T00:10:57;3.30;99.90
1453;DHT22;720;47.738;7.998;2023-01-08T00:13:22;3.30;99.90
1453;DHT22;720;47.738;7.998;2023-01-08T00:15:48;3.20;99.90
1453;DHT22;720;47.738;7.998;2023-01-08T00:18:14;3.20;99.90
1453;DHT22;720;47.738;7.998;2023-01-08T00:20:41;3.20;99.90
1453;DHT22;720;47.738;7.998;2023-01-08T00:23:13;3.20;99.90
1453;DHT22;720;47.738;7.998;2023-01-08T00:25:38;3.30;99.90
1453;DHT22;720;47.738;7.998;2023-01-08T00:28:04;3.30;99.90
1453;DHT22;720;47.738;7.998;2023-01-08T00:30:30;3.30;99.90
1453;DHT22;720;47.738;7.998;2023-01-08T00:32:56;3.30;99.90
1453;DHT22;720;47.738;7.998;2023-01-08T00:35:21;3.40;99.90
1453;DHT22;720;47.738;7.998;2023-01-08T00:37:50;3.40;99.90
1453;DHT22;720;47.738;7.998;2023-01-08T00:40:16;3.40;99.90
1453;DHT22;720;47.738;7.998;2023-01-08T00:42:42;3.30;99.90
1453;DHT22;720;47.738;7.998;2023-01-08T00:45:08;3.20;99.90
1453;DHT22;720;47.738;7.998;2023-01-08T00:47:34;3.30;99.90
1453;DHT22;720;47.738;7.998;2023-01-08T00:50:00;3.30;99.90
1453;DHT22;720;47.738;7.998;2023-01-08T00:52:25;3.40;99.90
1453;DHT22;720;47.738;7.998;2023-01-08T00:54:51;3.40;99.90
1453;DHT22;720;47.738;7.998;2023-01-08T00:57:17;3.60;99.90
1453;DHT22;720;47.738;7.998;2023-01-08T00:59:42;3.50;99.90
1453;DHT22;720;47.738;7.998;2023-01-08T01:02:09;3.50;99.90
1453;DHT22;720;47.738;7.998;2023-01-08T01:04:35;3.60;99.90
1453;DHT22;720;47.738;7.998;2023-01-08T01:07:01;3.60;99.90
1453;DHT22;720;47.738;7.998;2023-01-08T01:09:26;3.60;99.90
1453;DHT22;720;47.738;7.998;2023-01-08T01:11:52;3.60;99.90
1453;DHT22;720;47.738;7.998;2023-01-08T01:14:18;3.60;99.90
1453;DHT22;720;47.738;7.998;2023-01-08T01:16:43;3.70;99.90
1453;DHT22;720;47.738;7.998;2023-01-08T01:19:09;3.70;99.90
1453;DHT22;720;47.738;7.998;2023-01-08T01:21:35;3.70;99.90
1453;DHT22;720;47.738;7.998;2023-01-08T01:24:03;3.80;99.90
1453;DHT22;720;47.738;7.998;2023-01-08T01:26:29;3.90;99.90
1453;DHT22;720;47.738;7.998;2023-01-08T01:28:56;3.90;99.90
1453;DHT22;720;47.738;7.998;2023-01-08T01:31:23;4.00;99.90
1453;DHT22;720;47.738;7.998;2023-01-08T01:33:49;4.00;99.90
1453;DHT22;720;47.738;7.998;2023-01-08T01:36:17;3.90;99.90
1453;DHT22;720;47.738;7.998;2023-01-08T01:38:44;3.90;99.90
1453;DHT22;720;47.738;7.998;2023-01-08T01:41:41;4.00;99.90
1453;DHT22;720;47.738;7.998;2023-01-08T01:47:12;4.20;99.90
1453;DHT22;720;47.738;7.998;2023-01-08T01:49:42;4.20;99.90
1453;DHT22;720;47.738;7.998;2023-01-08T01:52:11;4.20;99.90
1453;DHT22;720;47.738;7.998;2023-01-08T01:54:36;4.30;99.90
1453;DHT22;720;47.738;7.998;2023-01-08T01:57:02;4.20;99.90
1453;DHT22;720;47.738;7.998;2023-01-08T01:59:29;4.20;99.90
1453;DHT22;720;47.738;7.998;2023-01-08T02:01:55;4.30;99.90
1453;DHT22;720;47.738;7.998;2023-01-08T02:04:21;4.30;99.90
1453;DHT22;720;47.738;7.998;2023-01-08T02:17:47;4.40;99.90
1453;DHT22;720;47.738;7.998;2023-01-08T02:20:19;4.50;99.90
1453;DHT22;720;47.738;7.998;2023-01-08T02:23:15;4.60;99.90
1453;DHT22;720;47.738;7.998;2023-01-08T02:28:35;4.80;99.90
1453;DHT22;720;47.738;7.998;2023-01-08T02:31:01;5.00;99.90
1453;DHT22;720;47.738;7.998;2023-01-08T02:33:43;5.00;99.90
1453;DHT22;720;47.738;7.998;2023-01-08T02:36:14;5.00;99.90
1453;DHT22;720;47.738;7.998;2023-01-08T02:39:02;5.00;99.90
1453;DHT22;720;47.738;7.998;2023-01-08T02:41:40;5.10;99.90
1453;DHT22;720;47.738;7.998;2023-01-08T02:44:12;5.10;99.90
1453;DHT22;720;47.738;7.998;2023-01-08T02:46:41;5.00;99.90
1453;DHT22;720;47.738;7.998;2023-01-08T02:49:09;5.00;99.90
1453;DHT22;720;47.738;7.998;2023-01-08T02:51:49;4.80;99.90
1453;DHT22;720;47.738;7.998;2023-01-08T02:54:23;4.70;99.90
1453;DHT22;720;47.738;7.998;2023-01-08T02:56:58;4.80;99.90
1453;DHT22;720;47.738;7.998;2023-01-08T02:59:25;4.80;99.90
1453;DHT22;720;47.738;7.998;2023-01-08T03:01:52;4.90;99.90
1453;DHT22;720;47.738;7.998;2023-01-08T03:04:21;4.90;99.90
1453;DHT22;720;47.738;7.998;2023-01-08T03:06:48;5.00;99.90
1453;DHT22;720;47.738;7.998;2023-01-08T03:09:15;5.20;99.90
1453;DHT22;720;47.738;7.998;2023-01-08T03:12:01;5.20;99.90
1453;DHT22;720;47.738;7.998;2023-01-08T03:14:52;5.30;99.90
1453;DHT22;720;47.738;7.998;2023-01-08T03:17:22;5.30;99.90
1453;DHT22;720;47.738;7.998;2023-01-08T03:20:19;5.30;99.90
1453;DHT22;720;47.738;7.998;2023-01-08T03:22:45;5.30;99.90
1453;DHT22;720;47.738;7.998;2023-01-08T03:25:13;5.40;99.90
1453;DHT22;720;47.738;7.998;2023-01-08T03:27:47;5.40;99.90
1453;DHT22;720;47.738;7.998;2023-01-08T03:30:15;5.30;99.90
1453;DHT22;720;47.738;7.998;2023-01-08T03:32:43;5.30;99.90
1453;DHT22;720;47.738;7.998;2023-01-08T03:35:11;5.30;99.90
1453;DHT22;720;47.738;7.998;2023-01-08T03:37:40;5.40;99.90
1453;DHT22;720;47.738;7.998;2023-01-08T03:40:11;5.40;99.90
1453;DHT22;720;47.738;7.998;2023-01-08T03:42:38;5.40;99.90
1453;DHT22;720;47.738;7.998;2023-01-08T03:45:05;5.50;99.90
1453;DHT22;720;47.738;7.998;2023-01-08T03:47:32;5.40;99.90
1453;DHT22;720;47.738;7.998;2023-01-08T03:50:01;5.40;99.90
1453;DHT22;720;47.738;7.998;2023-01-08T03:52:29;5.30;99.90
1453;DHT22;720;47.738;7.998;2023-01-08T03:54:55;5.30;99.90
1453;DHT22;720;47.738;7.998;2023-01-08T03:57:21;5.40;99.90
1453;DHT22;720;47.738;7.998;2023-01-08T03:59:47;5.50;99.90
1453;DHT22;720;47.738;7.998;2023-01-08T04:02:13;5.70;99.90
1453;DHT22;720;47.738;7.998;2023-01-08T04:04:39;5.90;99.90
1453;DHT22;720;47.738;7.998;2023-01-08T04:07:05;5.90;99.90
1453;DHT22;720;47.738;7.998;2023-01-08T04:09:31;6.10;99.90
1453;DHT22;720;47.738;7.998;2023-01-08T04:11:57;6.20;99.90
1453;DHT22;720;47.738;7.998;2023-01-08T04:14:22;6.30;99.90
1453;DHT22;720;47.738;7.998;2023-01-08T04:16:48;6.40;99.90
1453;DHT22;720;47.738;7.998;2023-01-08T04:19:14;6.50;99.90
1453;DHT22;720;47.738;7.998;2023-01-08T04:21:40;6.70;99.90
1453;DHT22;720;47.738;7.998;2023-01-08T04:24:06;6.80;99.90
1453;DHT22;720;47.738;7.998;2023-01-08T04:26:32;6.80;99.90
1453;DHT22;720;47.738;7.998;2023-01-08T04:28:57;6.90;99.90
1453;DHT22;720;47.738;7.998;2023-01-08T04:31:23;6.80;99.90
1453;DHT22;720;47.738;7.998;2023-01-08T04:33:49;6.80;99.90
1453;DHT22;720;47.738;7.998;2023-01-08T04:36:14;6.90;99.90
1453;DHT22;720;47.738;7.998;2023-01-08T04:38:40;6.90;99.90
1453;DHT22;720;47.738;7.998;2023-01-08T04:41:06;6.90;99.90
1453;DHT22;720;47.738;7.998;2023-01-08T04:43:32;7.00;99.90
1453;DHT22;720;47.738;7.998;2023-01-08T04:45:59;7.10;99.90
1453;DHT22;720;47.738;7.998;2023-01-08T04:48:26;7.10;99.90
1453;DHT22;720;47.738;7.998;2023-01-08T04:50:52;7.20;99.90
1453;DHT22;720;47.738;7.998;2023-01-08T04:53:17;7.40;99.90
1453;DHT22;720;47.738;7.998;2023-01-08T04:55:43;7.40;99.90
1453;DHT22;720;47.738;7.998;2023-01-08T04:58:09;7.50;99.90
1453;DHT22;720;47.738;7.998;2023-01-08T05:00:34;7.60;99.90
1453;DHT22;720;47.738;7.998;2023-01-08T05:03:00;7.60;99.90
1453;DHT22;720;47.738;7.998;2023-01-08T05:05:26;7.60;99.90
1453;DHT22;720;47.738;7.998;2023-01-08T05:07:52;7.60;99.90
1453;DHT22;720;47.738;7.998;2023-01-08T05:10:17;7.60;99.90
1453;DHT22;720;47.738;7.998;2023-01-08T05:12:43;7.60;99.90
1453;DHT22;720;47.738;7.998;2023-01-08T05:15:09;7.50;99.90
1453;DHT22;720;47.738;7.998;2023-01-08T05:17:35;7.50;99.90
1453;DHT22;720;47.738;7.998;2023-01-08T05:20:00;7.50;99.90
1453;DHT22;720;47.738;7.998;2023-01-08T05:22:27;7.60;99.90
1453;DHT22;720;47.738;7.998;2023-01-08T05:24:53;7.60;99.90
1453;DHT22;720;47.738;7.998;2023-01-08T05:27:19;7.60;99.90
1453;DHT22;720;47.738;7.998;2023-01-08T05:29:45;7.60;99.90
1453;DHT22;720;47.738;7.998;2023-01-08T05:32:14;7.60;99.90
1453;DHT22;720;47.738;7.998;2023-01-08T05:34:40;7.50;99.90
1453;DHT22;720;47.738;7.998;2023-01-08T05:37:06;7.40;99.90
1453;DHT22;720;47.738;7.998;2023-01-08T05:39:31;7.50;99.90
1453;DHT22;720;47.738;7.998;2023-01-08T05:41:57;7.50;99.90
1453;DHT22;720;47.738;7.998;2023-01-08T05:44:22;7.60;99.90
1453;DHT22;720;47.738;7.998;2023-01-08T05:46:48;7.60;99.90
1453;DHT22;720;47.738;7.998;2023-01-08T05:49:14;7.60;99.90
1453;DHT22;720;47.738;7.998;2023-01-08T05:51:40;7.60;99.90
1453;DHT22;720;47.738;7.998;2023-01-08T05:54:05;7.60;99.90
1453;DHT22;720;47.738;7.998;2023-01-08T05:56:31;7.50;99.90
1453;DHT22;720;47.738;7.998;2023-01-08T05:58:57;7.50;99.90
1453;DHT22;720;47.738;7.998;2023-01-08T06:01:22;7.50;99.90
1453;DHT22;720;47.738;7.998;2023-01-08T06:03:48;7.50;99.90
1453;DHT22;720;47.738;7.998;2023-01-08T06:06:14;7.50;99.90
1453;DHT22;720;47.738;7.998;2023-01-08T06:08:41;7.40;99.90
1453;DHT22;720;47.738;7.998;2023-01-08T06:11:07;7.40;99.90
1453;DHT22;720;47.738;7.998;2023-01-08T06:13:35;7.50;99.90
1453;DHT22;720;47.738;7.998;2023-01-08T06:16:02;7.60;99.90
1453;DHT22;720;47.738;7.998;2023-01-08T06:18:29;7.60;99.90
1453;DHT22;720;47.738;7.998;2023-01-08T06:20:55;7.50;99.90
1453;DHT22;720;47.738;7.998;2023-01-08T06:23:20;7.50;99.90
1453;DHT22;720;47.738;7.998;2023-01-08T06:25:51;7.40;99.90
1453;DHT22;720;47.738;7.998;2023-01-08T06:28:18;7.40;99.90
1453;DHT22;720;47.738;7.998;2023-01-08T06:30:44;7.40;99.90
1453;DHT22;720;47.738;7.998;2023-01-08T06:33:09;7.40;99.90
1453;DHT22;720;47.738;7.998;2023-01-08T06:35:35;7.50;99.90
1453;DHT22;720;47.738;7.998;2023-01-08T06:38:00;7.60;99.90
1453;DHT22;720;47.738;7.998;2023-01-08T06:40:26;7.50;99.90
1453;DHT22;720;47.738;7.998;2023-01-08T06:42:52;7.50;99.90
1453;DHT22;720;47.738;7.998;2023-01-08T06:45:17;7.50;99.90
1453;DHT22;720;47.738;7.998;2023-01-08T06:47:43;7.40;99.90
1453;DHT22;720;47.738;7.998;2023-01-08T06:50:09;7.40;99.90
1453;DHT22;720;47.738;7.998;2023-01-08T06:52:35;7.50;99.90
1453;DHT22;720;47.738;7.998;2023-01-08T06:55:00;7.50;99.90
1453;DHT22;720;47.738;7.998;2023-01-08T06:57:26;7.60;99.90
1453;DHT22;720;47.738;7.998;2023-01-08T06:59:51;7.60;99.90
1453;DHT22;720;47.738;7.998;2023-01-08T07:02:17;7.70;99.90
1453;DHT22;720;47.738;7.998;2023-01-08T07:04:43;7.80;99.90
1453;DHT22;720;47.738;7.998;2023-01-08T07:07:13;7.80;99.90
1453;DHT22;720;47.738;7.998;2023-01-08T07:09:42;7.80;99.90
1453;DHT22;720;47.738;7.998;2023-01-08T07:12:12;7.80;99.90
1453;DHT22;720;47.738;7.998;2023-01-08T07:14:38;7.80;99.90
1453;DHT22;720;47.738;7.998;2023-01-08T07:17:04;7.80;99.90
1453;DHT22;720;47.738;7.998;2023-01-08T07:19:30;7.70;99.90
1453;DHT22;720;47.738;7.998;2023-01-08T07:21:56;7.70;99.90
1453;DHT22;720;47.738;7.998;2023-01-08T07:24:21;7.60;99.90
1453;DHT22;720;47.738;7.998;2023-01-08T07:26:47;7.60;99.90
1453;DHT22;720;47.738;7.998;2023-01-08T07:29:12;7.60;99.90
1453;DHT22;720;47.738;7.998;2023-01-08T07:31:38;7.60;99.90
1453;DHT22;720;47.738;7.998;2023-01-08T07:34:04;7.70;99.90
1453;DHT22;720;47.738;7.998;2023-01-08T07:36:29;7.70;99.90
1453;DHT22;720;47.738;7.998;2023-01-08T07:38:55;7.70;99.90
1453;DHT22;720;47.738;7.998;2023-01-08T07:41:21;7.70;99.90
1453;DHT22;720;47.738;7.998;2023-01-08T07:43:47;7.60;99.90
1453;DHT22;720;47.738;7.998;2023-01-08T07:46:13;7.60;99.90
1453;DHT22;720;47.738;7.998;2023-01-08T07:48:40;7.60;99.90
1453;DHT22;720;47.738;7.998;2023-01-08T07:51:07;7.60;99.90
1453;DHT22;720;47.738;7.998;2023-01-08T07:53:34;7.60;99.90
1453;DHT22;720;47.738;7.998;2023-01-08T07:56:01;7.60;99.90
1453;DHT22;720;47.738;7.998;2023-01-08T07:58:27;7.60;99.90
1453;DHT22;720;47.738;7.998;2023-01-08T08:00:53;7.60;99.90
1453;DHT22;720;47.738;7.998;2023-01-08T08:03:19;7.50;99.90
1453;DHT22;720;47.738;7.998;2023-01-08T08:05:45;7.60;99.90
1453;DHT22;720;47.738;7.998;2023-01-08T08:08:11;7.60;99.90
1453;DHT22;720;47.738;7.998;2023-01-08T08:10:38;7.60;99.90
1453;DHT22;720;47.738;7.998;2023-01-08T08:13:04;7.60;99.90
1453;DHT22;720;47.738;7.998;2023-01-08T08:15:31;7.70;99.90
1453;DHT22;720;47.738;7.998;2023-01-08T08:17:56;7.60;99.90
1453;DHT22;720;47.738;7.998;2023-01-08T08:20:22;7.60;99.90
1453;DHT22;720;47.738;7.998;2023-01-08T08:22:48;7.70;99.90
1453;DHT22;720;47.738;7.998;2023-01-08T08:25:13;7.80;99.90
1453;DHT22;720;47.738;7.998;2023-01-08T08:27:40;7.70;99.90
1453;DHT22;720;47.738;7.998;2023-01-08T08:30:07;7.60;99.90
1453;DHT22;720;47.738;7.998;2023-01-08T08:32:33;7.50;99.90
1453;DHT22;720;47.738;7.998;2023-01-08T08:34:59;7.40;99.90
1453;DHT22;720;47.738;7.998;2023-01-08T08:37:25;7.30;99.90
1453;DHT22;720;47.738;7.998;2023-01-08T08:39:51;7.30;99.90
1453;DHT22;720;47.738;7.998;2023-01-08T08:42:16;7.20;99.90
1453;DHT22;720;47.738;7.998;2023-01-08T08:44:42;7.20;99.90
1453;DHT22;720;47.738;7.998;2023-01-08T08:47:08;7.20;99.90
1453;DHT22;720;47.738;7.998;2023-01-08T08:49:34;7.20;99.90
1453;DHT22;720;47.738;7.998;2023-01-08T08:52:04;7.20;99.90
1453;DHT22;720;47.738;7.998;2023-01-08T08:54:30;7.20;99.90
1453;DHT22;720;47.738;7.998;2023-01-08T08:56:56;7.20;99.90
1453;DHT22;720;47.738;7.998;2023-01-08T08:59:22;7.20;99.90
1453;DHT22;720;47.738;7.998;2023-01-08T09:01:47;7.20;99.90
1453;DHT22;720;47.738;7.998;2023-01-08T09:04:13;7.10;99.90
1453;DHT22;720;47.738;7.998;2023-01-08T09:06:38;7.00;99.90
1453;DHT22;720;47.738;7.998;2023-01-08T09:09:04;7.10;99.90
1453;DHT22;720;47.738;7.998;2023-01-08T09:11:30;7.20;99.90
1453;DHT22;720;47.738;7.998;2023-01-08T09:13:56;7.30;99.90
1453;DHT22;720;47.738;7.998;2023-01-08T09:16:21;7.30;99.90
1453;DHT22;720;47.738;7.998;2023-01-08T09:18:47;7.40;99.90
1453;DHT22;720;47.738;7.998;2023-01-08T09:21:14;7.40;99.90
1453;DHT22;720;47.738;7.998;2023-01-08T09:23:40;7.50;99.90
1453;DHT22;720;47.738;7.998;2023-01-08T09:26:06;7.60;99.90
1453;DHT22;720;47.738;7.998;2023-01-08T09:28:33;7.60;99.90
1453;DHT22;720;47.738;7.998;2023-01-08T09:31:02;7.70;99.90
1453;DHT22;720;47.738;7.998;2023-01-08T09:33:29;7.50;99.90
1453;DHT22;720;47.738;7.998;2023-01-08T09:35:54;7.50;99.90
1453;DHT22;720;47.738;7.998;2023-01-08T09:38:20;7.50;99.90
1453;DHT22;720;47.738;7.998;2023-01-08T09:40:56;7.60;99.90
1453;DHT22;720;47.738;7.998;2023-01-08T09:43:23;7.80;99.90
1453;DHT22;720;47.738;7.998;2023-01-08T09:45:58;7.80;99.90
1453;DHT22;720;47.738;7.998;2023-01-08T09:48:28;7.90;99.90
1453;DHT22;720;47.738;7.998;2023-01-08T09:50:55;8.00;99.90
1453;DHT22;720;47.738;7.998;2023-01-08T09:53:22;7.90;99.90
1453;DHT22;720;47.738;7.998;2023-01-08T09:55:57;7.90;99.90
1453;DHT22;720;47.738;7.998;2023-01-08T10:01:01;7.90;99.90
1453;DHT22;720;47.738;7.998;2023-01-08T10:03:39;7.80;99.90
1453;DHT22;720;47.738;7.998;2023-01-08T10:06:10;7.80;99.90
1453;DHT22;720;47.738;7.998;2023-01-08T10:08:36;7.90;99.90
1453;DHT22;720;47.738;7.998;2023-01-08T10:11:02;7.90;99.90
1453;DHT22;720;47.738;7.998;2023-01-08T10:13:28;7.90;99.90
1453;DHT22;720;47.738;7.998;2023-01-08T10:15:54;8.00;99.90
1453;DHT22;720;47.738;7.998;2023-01-08T10:18:22;7.90;99.90
1453;DHT22;720;47.738;7.998;2023-01-08T10:20:49;7.80;99.90
1453;DHT22;720;47.738;7.998;2023-01-08T10:23:17;7.90;99.90
1453;DHT22;720;47.738;7.998;2023-01-08T10:26:01;7.80;99.90
1453;DHT22;720;47.738;7.998;2023-01-08T10:28:29;7.90;99.90
1453;DHT22;720;47.738;7.998;2023-01-08T10:31:14;7.80;99.90
1453;DHT22;720;47.738;7.998;2023-01-08T10:33:45;7.90;99.90
1453;DHT22;720;47.738;7.998;2023-01-08T10:36:14;7.80;99.90
1453;DHT22;720;47.738;7.998;2023-01-08T10:38:56;7.90;99.90
1453;DHT22;720;47.738;7.998;2023-01-08T10:41:23;7.90;99.90
1453;DHT22;720;47.738;7.998;2023-01-08T10:44:01;7.80;99.90
1453;DHT22;720;47.738;7.998;2023-01-08T10:46:31;7.80;99.90
1453;DHT22;720;47.738;7.998;2023-01-08T10:49:01;7.90;99.90
1453;DHT22;720;47.738;7.998;2023-01-08T10:51:30;8.00;99.90
1453;DHT22;720;47.738;7.998;2023-01-08T10:54:19;8.00;99.90
1453;DHT22;720;47.738;7.998;2023-01-08T10:56:47;8.00;99.90
1453;DHT22;720;47.738;7.998;2023-01-08T10:59:21;8.00;99.90
1453;DHT22;720;47.738;7.998;2023-01-08T11:01:48;7.90;99.90
1453;DHT22;720;47.738;7.998;2023-01-08T11:04:26;7.80;99.90
1453;DHT22;720;47.738;7.998;2023-01-08T11:06:53;7.90;99.90
1453;DHT22;720;47.738;7.998;2023-01-08T11:09:27;7.90;99.90
1453;DHT22;720;47.738;7.998;2023-01-08T11:11:54;7.90;99.90
1453;DHT22;720;47.738;7.998;2023-01-08T11:14:29;7.90;99.90
1453;DHT22;720;47.738;7.998;2023-01-08T11:16:56;7.80;99.90
1453;DHT22;720;47.738;7.998;2023-01-08T11:19:25;7.70;99.90
1453;DHT22;720;47.738;7.998;2023-01-08T11:22:03;7.70;99.90
1453;DHT22;720;47.738;7.998;2023-01-08T11:24:37;7.70;99.90
1453;DHT22;720;47.738;7.998;2023-01-08T11:27:31;7.70;99.90
1453;DHT22;720;47.738;7.998;2023-01-08T11:30:04;7.60;99.90
1453;DHT22;720;47.738;7.998;2023-01-08T11:32:56;7.70;99.90
1453;DHT22;720;47.738;7.998;2023-01-08T11:35:27;7.60;99.90
1453;DHT22;720;47.738;7.998;2023-01-08T11:38:01;7.70;99.90
1453;DHT22;720;47.738;7.998;2023-01-08T11:40:36;7.80;99.90
1453;DHT22;720;47.738;7.998;2023-01-08T11:43:20;7.70;99.90
1453;DHT22;720;47.738;7.998;2023-01-08T11:48:26;7.80;99.90
1453;DHT22;720;47.738;7.998;2023-01-08T12:21:13;8.20;99.90
1453;DHT22;720;47.738;7.998;2023-01-08T12:32:31;8.50;99.90
1453;DHT22;720;47.738;7.998;2023-01-08T12:35:16;8.50;99.90
1453;DHT22;720;47.738;7.998;2023-01-08T12:37:51;8.60;99.90
1453;DHT22;720;47.738;7.998;2023-01-08T12:40:35;8.60;99.90
1453;DHT22;720;47.738;7.998;2023-01-08T12:43:07;8.60;99.90
1453;DHT22;720;47.738;7.998;2023-01-08T12:45:39;8.70;99.90
1453;DHT22;720;47.738;7.998;2023-01-08T12:48:31;8.70;99.90
1453;DHT22;720;47.738;7.998;2023-01-08T12:51:21;8.80;99.90
1453;DHT22;720;47.738;7.998;2023-01-08T12:57:08;8.80;99.90
1453;DHT22;720;47.738;7.998;2023-01-08T13:00:03;8.80;99.90
1453;DHT22;720;47.738;7.998;2023-01-08T13:02:50;8.70;99.90
1453;DHT22;720;47.738;7.998;2023-01-08T13:07:50;8.90;99.90
1453;DHT22;720;47.738;7.998;2023-01-08T13:10:47;8.90;99.90
1453;DHT22;720;47.738;7.998;2023-01-08T13:18:36;8.70;99.90
1453;DHT22;720;47.738;7.998;2023-01-08T13:21:04;8.80;99.90
1453;DHT22;720;47.738;7.998;2023-01-08T13:23:31;8.80;99.90
1453;DHT22;720;47.738;7.998;2023-01-08T13:26:00;8.80;99.90
1453;DHT22;720;47.738;7.998;2023-01-08T13:28:50;8.80;99.90
1453;DHT22;720;47.738;7.998;2023-01-08T13:33:50;8.80;99.90
1453;DHT22;720;47.738;7.998;2023-01-08T13:36:28;8.90;99.90
1453;DHT22;720;47.738;7.998;2023-01-08T13:41:56;8.90;99.90
1453;DHT22;720;47.738;7.998;2023-01-08T13:46:55;8.90;99.90
1453;DHT22;720;47.738;7.998;2023-01-08T13:49:41;8.80;99.90
1453;DHT22;720;47.738;7.998;2023-01-08T13:52:46;8.90;99.90
1453;DHT22;720;47.738;7.998;2023-01-08T13:55:19;8.80;99.90
1453;DHT22;720;47.738;7.998;2023-01-08T13:57:52;8.80;99.90
1453;DHT22;720;47.738;7.998;2023-01-08T14:00:25;8.80;99.90
1453;DHT22;720;47.738;7.998;2023-01-08T14:02:52;8.80;99.90
1453;DHT22;720;47.738;7.998;2023-01-08T14:07:46;8.80;99.90
1453;DHT22;720;47.738;7.998;2023-01-08T14:10:13;8.80;99.90
1453;DHT22;720;47.738;7.998;2023-01-08T14:12:40;8.90;99.90
1453;DHT22;720;47.738;7.998;2023-01-08T14:15:19;8.90;99.90
1453;DHT22;720;47.738;7.998;2023-01-08T14:17:45;8.90;99.90
1453;DHT22;720;47.738;7.998;2023-01-08T14:20:11;8.90;99.90
1453;DHT22;720;47.738;7.998;2023-01-08T14:22:40;8.80;99.90
1453;DHT22;720;47.738;7.998;2023-01-08T14:25:06;8.70;99.90
1453;DHT22;720;47.738;7.998;2023-01-08T14:27:33;8.70;99.90
1453;DHT22;720;47.738;7.998;2023-01-08T14:29:59;8.70;99.90
1453;DHT22;720;47.738;7.998;2023-01-08T14:32:27;8.80;99.90
1453;DHT22;720;47.738;7.998;2023-01-08T14:34:54;8.80;99.90
1453;DHT22;720;47.738;7.998;2023-01-08T14:37:21;8.80;99.90
1453;DHT22;720;47.738;7.998;2023-01-08T14:39:46;8.80;99.90
1453;DHT22;720;47.738;7.998;2023-01-08T14:42:20;8.80;99.90
1453;DHT22;720;47.738;7.998;2023-01-08T14:45:21;8.80;99.90
1453;DHT22;720;47.738;7.998;2023-01-08T14:47:54;8.90;99.90
1453;DHT22;720;47.738;7.998;2023-01-08T14:50:28;8.90;99.90
1453;DHT22;720;47.738;7.998;2023-01-08T14:52:58;8.90;99.90
1453;DHT22;720;47.738;7.998;2023-01-08T14:55:28;9.00;99.90
1453;DHT22;720;47.738;7.998;2023-01-08T14:57:54;8.90;99.90
1453;DHT22;720;47.738;7.998;2023-01-08T15:00:24;8.90;99.90
1453;DHT22;720;47.738;7.998;2023-01-08T15:02:50;8.90;99.90
1453;DHT22;720;47.738;7.998;2023-01-08T15:05:29;8.90;99.90
1453;DHT22;720;47.738;7.998;2023-01-08T15:08:32;8.90;99.90
1453;DHT22;720;47.738;7.998;2023-01-08T15:13:33;9.00;99.90
1453;DHT22;720;47.738;7.998;2023-01-08T15:16:24;8.90;99.90
1453;DHT22;720;47.738;7.998;2023-01-08T15:19:00;8.70;99.90
1453;DHT22;720;47.738;7.998;2023-01-08T15:21:27;8.60;99.90
1453;DHT22;720;47.738;7.998;2023-01-08T15:23:54;8.70;99.90
1453;DHT22;720;47.738;7.998;2023-01-08T15:26:21;8.60;99.90
1453;DHT22;720;47.738;7.998;2023-01-08T15:28:51;8.70;99.90
1453;DHT22;720;47.738;7.998;2023-01-08T15:31:28;8.80;99.90
1453;DHT22;720;47.738;7.998;2023-01-08T15:33:55;8.70;99.90
1453;DHT22;720;47.738;7.998;2023-01-08T15:36:20;8.70;99.90
1453;DHT22;720;47.738;7.998;2023-01-08T15:38:47;8.70;99.90
1453;DHT22;720;47.738;7.998;2023-01-08T15:41:20;8.70;99.90
1453;DHT22;720;47.738;7.998;2023-01-08T15:44:05;8.70;99.90
1453;DHT22;720;47.738;7.998;2023-01-08T15:46:31;8.70;99.90
1453;DHT22;720;47.738;7.998;2023-01-08T15:48:56;8.70;99.90
1453;DHT22;720;47.738;7.998;2023-01-08T15:51:23;8.50;99.90
1453;DHT22;720;47.738;7.998;2023-01-08T15:53:49;8.40;99.90
1453;DHT22;720;47.738;7.998;2023-01-08T15:56:15;8.40;99.90
1453;DHT22;720;47.738;7.998;2023-01-08T15:58:40;8.40;99.90
1453;DHT22;720;47.738;7.998;2023-01-08T16:01:07;8.50;99.90
1453;DHT22;720;47.738;7.998;2023-01-08T16:03:32;8.50;99.90
1453;DHT22;720;47.738;7.998;2023-01-08T16:05:58;8.60;99.90
1453;DHT22;720;47.738;7.998;2023-01-08T16:08:24;8.50;99.90
1453;DHT22;720;47.738;7.998;2023-01-08T16:10:52;8.50;99.90
1453;DHT22;720;47.738;7.998;2023-01-08T16:13:19;8.40;99.90
1453;DHT22;720;47.738;7.998;2023-01-08T16:15:45;8.40;99.90
1453;DHT22;720;47.738;7.998;2023-01-08T16:18:10;8.40;99.90
1453;DHT22;720;47.738;7.998;2023-01-08T16:20:37;8.40;99.90
1453;DHT22;720;47.738;7.998;2023-01-08T16:23:02;8.40;99.90
1453;DHT22;720;47.738;7.998;2023-01-08T16:25:28;8.40;99.90
1453;DHT22;720;47.738;7.998;2023-01-08T16:27:56;8.40;99.90
1453;DHT22;720;47.738;7.998;2023-01-08T16:30:21;8.30;99.90
1453;DHT22;720;47.738;7.998;2023-01-08T16:32:51;8.40;99.90
1453;DHT22;720;47.738;7.998;2023-01-08T16:35:18;8.40;99.90
1453;DHT22;720;47.738;7.998;2023-01-08T16:37:44;8.40;99.90
1453;DHT22;720;47.738;7.998;2023-01-08T16:40:11;8.30;99.90
1453;DHT22;720;47.738;7.998;2023-01-08T16:42:36;8.30;99.90
1453;DHT22;720;47.738;7.998;2023-01-08T16:45:03;8.40;99.90
1453;DHT22;720;47.738;7.998;2023-01-08T16:47:29;8.40;99.90
1453;DHT22;720;47.738;7.998;2023-01-08T16:49:54;8.40;99.90
1453;DHT22;720;47.738;7.998;2023-01-08T16:52:20;8.50;99.90
1453;DHT22;720;47.738;7.998;2023-01-08T16:54:46;8.40;99.90
1453;DHT22;720;47.738;7.998;2023-01-08T16:57:12;8.40;99.90
1453;DHT22;720;47.738;7.998;2023-01-08T16:59:37;8.30;99.90
1453;DHT22;720;47.738;7.998;2023-01-08T17:02:03;8.20;99.90
1453;DHT22;720;47.738;7.998;2023-01-08T17:04:29;8.30;99.90
1453;DHT22;720;47.738;7.998;2023-01-08T17:06:55;8.20;99.90
1453;DHT22;720;47.738;7.998;2023-01-08T17:09:21;8.30;99.90
1453;DHT22;720;47.738;7.998;2023-01-08T17:11:47;8.40;99.90
1453;DHT22;720;47.738;7.998;2023-01-08T17:14:13;8.40;99.90
1453;DHT22;720;47.738;7.998;2023-01-08T17:16:38;8.30;99.90
1453;DHT22;720;47.738;7.998;2023-01-08T17:19:07;8.40;99.90
1453;DHT22;720;47.738;7.998;2023-01-08T17:21:33;8.30;99.90
1453;DHT22;720;47.738;7.998;2023-01-08T17:24:00;8.30;99.90
1453;DHT22;720;47.738;7.998;2023-01-08T17:26:26;8.20;99.90
1453;DHT22;720;47.738;7.998;2023-01-08T17:28:52;8.10;99.90
1453;DHT22;720;47.738;7.998;2023-01-08T17:31:18;8.00;99.90
1453;DHT22;720;47.738;7.998;2023-01-08T17:33:45;8.00;99.90
1453;DHT22;720;47.738;7.998;2023-01-08T17:38:44;8.10;99.90
1453;DHT22;720;47.738;7.998;2023-01-08T17:41:11;8.20;99.90
1453;DHT22;720;47.738;7.998;2023-01-08T17:43:58;8.30;99.90
1453;DHT22;720;47.738;7.998;2023-01-08T17:46:23;8.30;99.90
1453;DHT22;720;47.738;7.998;2023-01-08T17:48:49;8.30;99.90
1453;DHT22;720;47.738;7.998;2023-01-08T17:51:16;8.20;99.90
1453;DHT22;720;47.738;7.998;2023-01-08T17:53:42;8.20;99.90
1453;DHT22;720;47.738;7.998;2023-01-08T17:56:07;8.20;99.90
1453;DHT22;720;47.738;7.998;2023-01-08T17:58:33;8.20;99.90
1453;DHT22;720;47.738;7.998;2023-01-08T18:00:59;8.20;99.90
1453;DHT22;720;47.738;7.998;2023-01-08T18:03:24;8.20;99.90
1453;DHT22;720;47.738;7.998;2023-01-08T18:05:50;8.20;99.90
1453;DHT22;720;47.738;7.998;2023-01-08T18:08:16;8.20;99.90
1453;DHT22;720;47.738;7.998;2023-01-08T18:10:41;8.20;99.90
1453;DHT22;720;47.738;7.998;2023-01-08T18:13:07;8.10;99.90